Manchester, Oklahoma
Current Conditions -  °F | °C
As of 6:10 AM on Monday 20 Oct 2014 (Local Time) from KAVK Reporting Station
Few Clouds Few Clouds  
Wind Chill: 59°   Ceiling: Unl
Heat Index: 59°   Visibility: 10mi
Dew Point: 57°   Wind: 7mph
Humidity: 94%   Direction: 220°SW
Pressure: 30.01"   Gusts: NA
Location:  36.99°N, 98.04°W
Report Text: KAVK 201110Z AUTO 22006KT 10SM FEW070 15/14 A3001 RMK AO2
Loading
Personal Weather Stations






























Interactive Weather Map
Tropical Storm Tracking
New forecast layout! Learn more

10-Day Weather Forecast

Advertisements
Track Severe Weather on mobile